Lacygne, Kansas
Current Conditions -  °F | °C
As of 5:53 AM on Sunday 25 Jan 2015 (Local Time) from KIXD Reporting Station
Overcast Overcast  
Wind Chill: 34°   Ceiling: 2700
Heat Index: 43°   Visibility: 10mi
Dew Point: 37°   Wind: 20mph
Humidity: 80%   Direction: 300°WNW
Pressure: 29.68"   Gusts: NA
Location:  38.3335°N, 94.7608°W
Report Text: KIXD 251153Z 30017KT 10SM BKN027 BKN042 OVC060 06/03 A2968 RMK AO2 RAB1055E04 SLP050 P0000 60001 70007 T00610028 10083 20061 55000
Loading
Personal Weather Stations






























Interactive Weather Map New forecast layout! Learn more

10-Day Weather Forecast

Advertisements
Track Severe Weather on mobile